Sagittarian — WCY5210 — position and weather

sailwx.info

Track history (hours):
 
Tides and Currents Weather Stations Pressure Air Temp Water Temp Dewpoint Dewpoint Depression Visibility Wind Speed Wind Dir Waves Ship Positions

Sagittarian

Owner: TAURUS MARINE, SAN FRANCISCO, CA. More information available from US FCC via Universal Licensing System and Coast Guard Vessel Documentation Center.

Last reported at 2018-May-21 12:31 UTC. Time now 2018-May-22 16:05 UTC.
Position N 37°46' W 122°23'.

; draft 3 m.

Type: Towing. MMSI: 366969510.

Date/timePositionNaut miles runAvg speedWind from/ knotsBaromVisibWave heightAir tempDewpointWater temp
2018-May-21 12:31N 37°46' W 122°23'0 0.0
2018-May-21 12:30N 37°46' W 122°23'3 6.6
2018-May-21 12:00N 37°48' W 122°19'1 2.6
2018-May-21 11:30N 37°48' W 122°18'0 0.1
2018-May-21 11:00N 37°47' W 122°17'0 0.0
2018-May-21 10:30N 37°47' W 122°17'1 1.4
2018-May-21 10:01N 37°48' W 122°18'3 5.4
2018-May-21 09:30N 37°47' W 122°22'1 0.1
2018-May-20 16:48N 37°46' W 122°23'0 0.7
2018-May-20 16:30N 37°47' W 122°23'4 8.4
2018-May-20 16:00N 37°51' W 122°24'4 7.3
2018-May-20 15:30N 37°54' W 122°23'1 1.7
2018-May-20 15:00N 37°55' W 122°22'1 2.1
2018-May-20 14:30N 37°54' W 122°23'13 3.1
2018-May-20 10:15N 38°02' W 122°09'3 8.3
2018-May-20 09:50N 38°04' W 122°13'4 0.2
2018-May-19 12:32N 38°02' W 122°09'2 6.3
2018-May-19 12:10N 38°03' W 122°11'1 7.5
2018-May-19 11:58N 38°03' W 122°13'3 7.1
2018-May-19 11:29N 38°03' W 122°17'9 6.4
2018-May-19 10:00N 37°57' W 122°26'3 6.4
2018-May-19 09:30N 37°54' W 122°23'1 2.5
2018-May-19 09:00N 37°55' W 122°22'1 1.7
2018-May-19 08:29N 37°54' W 122°23'4 7.8
2018-May-19 07:59N 37°50' W 122°23'4 8.2
2018-May-19 07:30N 37°46' W 122°23'0 0.0
2018-May-19 07:00N 37°46' W 122°23'0 0.0
2018-May-19 03:20N 37°46' W 122°23'1 3.5
2018-May-19 03:00N 37°48' W 122°23'3 5.7
2018-May-19 02:30N 37°49' W 122°26'2 3.1
2018-May-19 02:00N 37°49' W 122°28'1 1.8
2018-May-19 01:30N 37°50' W 122°27'2 3.7
2018-May-19 01:00N 37°50' W 122°25'2 3.7
2018-May-19 00:30N 37°49' W 122°23'2 4.0
2018-May-19 00:00N 37°47' W 122°21'2 3.2
2018-May-18 23:30N 37°47' W 122°20'1 1.7
2018-May-18 23:00N 37°46' W 122°19'1 1.0
2018-May-18 22:30N 37°47' W 122°18'0 0.2
2018-May-18 22:01N 37°47' W 122°18'1 2.1
2018-May-18 21:31N 37°46' W 122°19'3 5.9
2018-May-18 21:00N 37°46' W 122°23'0 0.0
2018-May-17 18:39N 37°46' W 122°23'0 0.1
2018-May-17 18:30N 37°46' W 122°23'4 7.1
2018-May-17 18:00N 37°50' W 122°23'4 8.9
2018-May-17 17:31N 37°54' W 122°23'1 2.4
2018-May-17 17:00N 37°55' W 122°22'1 1.8
2018-May-17 16:30N 37°54' W 122°23'2 4.2
2018-May-17 16:00N 37°55' W 122°25'0 0.0
2018-May-17 15:30N 37°55' W 122°25'0 0.9
2018-May-17 15:00N 37°55' W 122°25'4 7.4
2018-May-17 14:30N 37°51' W 122°24'5 9.7
2018-May-17 14:00N 37°47' W 122°23'0 0.0
2018-May-17 02:40N 37°46' W 122°23'1 5.7
2018-May-17 02:30N 37°47' W 122°23'510.1
2018-May-17 02:00N 37°53' W 122°24'2 4.9
2018-May-17 01:30N 37°54' W 122°22'1 1.3
2018-May-17 00:58N 37°55' W 122°22'0 0.0
2018-May-17 00:28N 37°55' W 122°22'0 0.0
2018-May-16 23:59N 37°55' W 122°22'1 1.0
2018-May-16 23:28N 37°55' W 122°22'0 0.5
2018-May-16 23:00N 37°55' W 122°22'2 4.5
2018-May-16 22:30N 37°54' W 122°24'5 9.0
2018-May-16 22:00N 37°50' W 122°21'3 5.6
2018-May-16 21:30N 37°47' W 122°22'1 0.0
2018-May-15 22:34N 37°46' W 122°23'0 0.0
2018-May-15 22:30N 37°46' W 122°23'4 8.2
2018-May-15 22:00N 37°50' W 122°24'5 9.7
2018-May-15 21:30N 37°55' W 122°25'1 1.2
2018-May-15 21:00N 37°56' W 122°25'4 5.9
2018-May-15 20:15N 38°00' W 122°25'3 7.1
2018-May-15 19:54N 38°02' W 122°22'11 4.2
2018-May-15 17:15N 38°02' W 122°08'4 9.2
2018-May-15 16:46N 38°04' W 122°13'0 0.0
2018-May-14 22:33N 38°04' W 122°13'1 9.4
2018-May-14 22:30N 38°04' W 122°14'11 8.8
2018-May-14 21:14N 37°58' W 122°26'2 9.8
2018-May-14 20:59N 37°56' W 122°27'510.4
2018-May-14 20:30N 37°51' W 122°24'5 9.4
2018-May-14 20:00N 37°46' W 122°23'0 0.0
2018-May-14 19:29N 37°46' W 122°23'0 0.0
2018-May-14 15:02N 37°46' W 122°23'0 0.3
2018-May-14 15:00N 37°46' W 122°23'0 0.0
2018-May-14 14:30N 37°46' W 122°23'0 0.0
2018-May-14 14:00N 37°46' W 122°23'0 0.0
2018-May-14 13:30N 37°46' W 122°23'0 0.0
2018-May-14 00:35N 37°46' W 122°23'0 2.1
2018-May-14 00:30N 37°47' W 122°23'4 8.5
2018-May-14 00:00N 37°51' W 122°24'3 6.9
2018-May-13 23:30N 37°54' W 122°26'1 2.9
2018-May-13 23:00N 37°55' W 122°25'0 0.1
2018-May-13 22:30N 37°55' W 122°25'0 0.2
2018-May-13 22:00N 37°55' W 122°25'0 0.2
2018-May-13 21:28N 37°55' W 122°25'3 7.1
2018-May-13 21:00N 37°52' W 122°24'5 9.7
2018-May-13 20:30N 37°47' W 122°23'1 0.0
2018-May-13 04:10N 37°46' W 122°23'1 6.1
2018-May-13 04:00N 37°47' W 122°23'5 9.9
2018-May-13 03:30N 37°52' W 122°24'3 5.5
2018-May-13 02:58N 37°55' W 122°25'0 0.7
2018-May-13 02:30N 37°55' W 122°25'1 1.6
2018-May-13 02:00N 37°55' W 122°26'5 9.3
2018-May-13 01:30N 37°51' W 122°24'4 8.3
2018-May-13 01:00N 37°46' W 122°23'0 0.0
2018-May-12 07:54N 37°46' W 122°23'2 5.1
2018-May-12 07:30N 37°48' W 122°24'4 8.4
2018-May-12 07:00N 37°49' W 122°29'2 3.4
2018-May-12 06:30N 37°49' W 122°31'2 3.2
2018-May-12 06:00N 37°49' W 122°29'4 8.2
2018-May-12 05:30N 37°51' W 122°25'4 8.0
2018-May-12 05:00N 37°55' W 122°26'1 1.9
2018-May-12 04:30N 37°54' W 122°25'510.7
2018-May-12 04:00N 37°49' W 122°23'3 5.8
2018-May-12 03:30N 37°46' W 122°23'0 0.0
2018-May-11 21:28N 37°46' W 122°23'0 0.0
2018-May-11 20:59N 37°46' W 122°23'0 0.0
2018-May-11 20:30N 37°46' W 122°23'0 0.0
2018-May-11 19:59N 37°46' W 122°23'0 0.0
2018-May-11 19:30N 37°46' W 122°23'0 0.1
2018-May-11 19:00N 37°46' W 122°23'0 0.2
2018-May-11 18:30N 37°46' W 122°23'0 0.0
2018-May-11 18:00N 37°46' W 122°23'0 0.0
2018-May-11 17:31N 37°46' W 122°23'0 0.0
2018-May-11 16:27N 37°46' W 122°23'0 0.0
2018-May-11 16:00N 37°46' W 122°23'  
Track history (hours):
 
Tides and Currents Weather Stations Pressure Air Temp Water Temp Dewpoint Dewpoint Depression Visibility Wind Speed Wind Dir Waves Ship Positions

Sagittarian

Owner: TAURUS MARINE, SAN FRANCISCO, CA. More information available from US FCC via Universal Licensing System and Coast Guard Vessel Documentation Center.

Last reported at 2018-May-21 12:31 UTC. Time now 2018-May-22 16:05 UTC.
Position N 37°46' W 122°23'.

; draft 3 m.

Type: Towing. MMSI: 366969510.

Date/timePositionNaut miles runAvg speedWind from/ knotsBaromVisibWave heightAir tempDewpointWater temp
2018-May-21 12:31N 37°46' W 122°23'0 0.0
2018-May-21 12:30N 37°46' W 122°23'3 6.6
2018-May-21 12:00N 37°48' W 122°19'1 2.6
2018-May-21 11:30N 37°48' W 122°18'0 0.1
2018-May-21 11:00N 37°47' W 122°17'0 0.0
2018-May-21 10:30N 37°47' W 122°17'1 1.4
2018-May-21 10:01N 37°48' W 122°18'3 5.4
2018-May-21 09:30N 37°47' W 122°22'1 0.1
2018-May-20 16:48N 37°46' W 122°23'0 0.7
2018-May-20 16:30N 37°47' W 122°23'4 8.4
2018-May-20 16:00N 37°51' W 122°24'4 7.3
2018-May-20 15:30N 37°54' W 122°23'1 1.7
2018-May-20 15:00N 37°55' W 122°22'1 2.1
2018-May-20 14:30N 37°54' W 122°23'13 3.1
2018-May-20 10:15N 38°02' W 122°09'3 8.3
2018-May-20 09:50N 38°04' W 122°13'4 0.2
2018-May-19 12:32N 38°02' W 122°09'2 6.3
2018-May-19 12:10N 38°03' W 122°11'1 7.5
2018-May-19 11:58N 38°03' W 122°13'3 7.1
2018-May-19 11:29N 38°03' W 122°17'9 6.4
2018-May-19 10:00N 37°57' W 122°26'3 6.4
2018-May-19 09:30N 37°54' W 122°23'1 2.5
2018-May-19 09:00N 37°55' W 122°22'1 1.7
2018-May-19 08:29N 37°54' W 122°23'4 7.8
2018-May-19 07:59N 37°50' W 122°23'4 8.2
2018-May-19 07:30N 37°46' W 122°23'0 0.0
2018-May-19 07:00N 37°46' W 122°23'0 0.0
2018-May-19 03:20N 37°46' W 122°23'1 3.5
2018-May-19 03:00N 37°48' W 122°23'3 5.7
2018-May-19 02:30N 37°49' W 122°26'2 3.1
2018-May-19 02:00N 37°49' W 122°28'1 1.8
2018-May-19 01:30N 37°50' W 122°27'2 3.7
2018-May-19 01:00N 37°50' W 122°25'2 3.7
2018-May-19 00:30N 37°49' W 122°23'2 4.0
2018-May-19 00:00N 37°47' W 122°21'2 3.2
2018-May-18 23:30N 37°47' W 122°20'1 1.7
2018-May-18 23:00N 37°46' W 122°19'1 1.0
2018-May-18 22:30N 37°47' W 122°18'0 0.2
2018-May-18 22:01N 37°47' W 122°18'1 2.1
2018-May-18 21:31N 37°46' W 122°19'3 5.9
2018-May-18 21:00N 37°46' W 122°23'0 0.0
2018-May-17 18:39N 37°46' W 122°23'0 0.1
2018-May-17 18:30N 37°46' W 122°23'4 7.1
2018-May-17 18:00N 37°50' W 122°23'4 8.9
2018-May-17 17:31N 37°54' W 122°23'1 2.4
2018-May-17 17:00N 37°55' W 122°22'1 1.8
2018-May-17 16:30N 37°54' W 122°23'2 4.2
2018-May-17 16:00N 37°55' W 122°25'0 0.0
2018-May-17 15:30N 37°55' W 122°25'0 0.9
2018-May-17 15:00N 37°55' W 122°25'4 7.4
2018-May-17 14:30N 37°51' W 122°24'5 9.7
2018-May-17 14:00N 37°47' W 122°23'0 0.0
2018-May-17 02:40N 37°46' W 122°23'1 5.7
2018-May-17 02:30N 37°47' W 122°23'510.1
2018-May-17 02:00N 37°53' W 122°24'2 4.9
2018-May-17 01:30N 37°54' W 122°22'1 1.3
2018-May-17 00:58N 37°55' W 122°22'0 0.0
2018-May-17 00:28N 37°55' W 122°22'0 0.0
2018-May-16 23:59N 37°55' W 122°22'1 1.0
2018-May-16 23:28N 37°55' W 122°22'0 0.5
2018-May-16 23:00N 37°55' W 122°22'2 4.5
2018-May-16 22:30N 37°54' W 122°24'5 9.0
2018-May-16 22:00N 37°50' W 122°21'3 5.6
2018-May-16 21:30N 37°47' W 122°22'1 0.0
2018-May-15 22:34N 37°46' W 122°23'0 0.0
2018-May-15 22:30N 37°46' W 122°23'4 8.2
2018-May-15 22:00N 37°50' W 122°24'5 9.7
2018-May-15 21:30N 37°55' W 122°25'1 1.2
2018-May-15 21:00N 37°56' W 122°25'4 5.9
2018-May-15 20:15N 38°00' W 122°25'3 7.1
2018-May-15 19:54N 38°02' W 122°22'11 4.2
2018-May-15 17:15N 38°02' W 122°08'4 9.2
2018-May-15 16:46N 38°04' W 122°13'0 0.0
2018-May-14 22:33N 38°04' W 122°13'1 9.4
2018-May-14 22:30N 38°04' W 122°14'11 8.8
2018-May-14 21:14N 37°58' W 122°26'2 9.8
2018-May-14 20:59N 37°56' W 122°27'510.4
2018-May-14 20:30N 37°51' W 122°24'5 9.4
2018-May-14 20:00N 37°46' W 122°23'0 0.0
2018-May-14 19:29N 37°46' W 122°23'0 0.0
2018-May-14 15:02N 37°46' W 122°23'0 0.3
2018-May-14 15:00N 37°46' W 122°23'0 0.0
2018-May-14 14:30N 37°46' W 122°23'0 0.0
2018-May-14 14:00N 37°46' W 122°23'0 0.0
2018-May-14 13:30N 37°46' W 122°23'0 0.0
2018-May-14 00:35N 37°46' W 122°23'0 2.1
2018-May-14 00:30N 37°47' W 122°23'4 8.5
2018-May-14 00:00N 37°51' W 122°24'3 6.9
2018-May-13 23:30N 37°54' W 122°26'1 2.9
2018-May-13 23:00N 37°55' W 122°25'0 0.1
2018-May-13 22:30N 37°55' W 122°25'0 0.2
2018-May-13 22:00N 37°55' W 122°25'0 0.2
2018-May-13 21:28N 37°55' W 122°25'3 7.1
2018-May-13 21:00N 37°52' W 122°24'5 9.7
2018-May-13 20:30N 37°47' W 122°23'1 0.0
2018-May-13 04:10N 37°46' W 122°23'1 6.1
2018-May-13 04:00N 37°47' W 122°23'5 9.9
2018-May-13 03:30N 37°52' W 122°24'3 5.5
2018-May-13 02:58N 37°55' W 122°25'0 0.7
2018-May-13 02:30N 37°55' W 122°25'1 1.6
2018-May-13 02:00N 37°55' W 122°26'5 9.3
2018-May-13 01:30N 37°51' W 122°24'4 8.3
2018-May-13 01:00N 37°46' W 122°23'0 0.0
2018-May-12 07:54N 37°46' W 122°23'2 5.1
2018-May-12 07:30N 37°48' W 122°24'4 8.4
2018-May-12 07:00N 37°49' W 122°29'2 3.4
2018-May-12 06:30N 37°49' W 122°31'2 3.2
2018-May-12 06:00N 37°49' W 122°29'4 8.2
2018-May-12 05:30N 37°51' W 122°25'4 8.0
2018-May-12 05:00N 37°55' W 122°26'1 1.9
2018-May-12 04:30N 37°54' W 122°25'510.7
2018-May-12 04:00N 37°49' W 122°23'3 5.8
2018-May-12 03:30N 37°46' W 122°23'0 0.0
2018-May-11 21:28N 37°46' W 122°23'0 0.0
2018-May-11 20:59N 37°46' W 122°23'0 0.0
2018-May-11 20:30N 37°46' W 122°23'0 0.0
2018-May-11 19:59N 37°46' W 122°23'0 0.0
2018-May-11 19:30N 37°46' W 122°23'0 0.1
2018-May-11 19:00N 37°46' W 122°23'0 0.2
2018-May-11 18:30N 37°46' W 122°23'0 0.0
2018-May-11 18:00N 37°46' W 122°23'0 0.0
2018-May-11 17:31N 37°46' W 122°23'0 0.0
2018-May-11 16:27N 37°46' W 122°23'0 0.0
2018-May-11 16:00N 37°46' W 122°23'  

Dump ship's entire track history